Time;durP1;ratioP1;P1;durP2;ratioP2;P2;SDS_P1;SDS_P2;PMS_P1;PMS_P2;Temp;Humidity;BMP_temperature;BMP_pressure;BME280_temperature;BME280_humidity;BME280_pressure;Samples;Min_cycle;Max_cycle;Signal;HPM_P1;HPM_P2
2021/04/25 00:00:40;;;;;;;5.93;3.75;;;;;;;-0.62;100.00;100390.94;2578248;55;20112;-74
2021/04/25 00:03:07;;;;;;;6.00;4.72;;;;;;;-0.63;100.00;100389.22;2578324;55;20120;-74
2021/04/25 00:05:35;;;;;;;6.47;4.15;;;;;;;-0.63;100.00;100394.47;2578251;55;20119;-74
2021/04/25 00:08:02;;;;;;;6.97;4.53;;;;;;;-0.63;100.00;100394.47;2573286;55;20117;-74
2021/04/25 00:10:30;;;;;;;10.55;5.35;;;;;;;-0.65;100.00;100385.81;2578343;55;20911;-74
2021/04/25 00:12:57;;;;;;;8.35;4.90;;;;;;;-0.66;100.00;100382.31;2578557;55;20848;-74
2021/04/25 00:15:26;;;;;;;8.88;4.60;;;;;;;-0.68;100.00;100381.53;2578431;55;20134;-74
2021/04/25 00:17:55;;;;;;;8.55;4.93;;;;;;;-0.69;100.00;100384.22;2573136;55;20488;-74
2021/04/25 00:20:23;;;;;;;7.35;4.72;;;;;;;-0.75;100.00;100380.88;2578336;55;20112;-74
2021/04/25 00:22:50;;;;;;;8.48;4.70;;;;;;;-0.77;100.00;100380.06;2578237;55;20113;-75
2021/04/25 00:25:18;;;;;;;8.80;4.87;;;;;;;-0.80;100.00;100377.56;2578191;55;20101;-74
2021/04/25 00:27:47;;;;;;;8.05;5.00;;;;;;;-0.80;100.00;100377.56;2578035;55;20132;-74
2021/04/25 00:30:17;;;;;;;9.10;4.87;;;;;;;-0.79;100.00;100379.28;2578315;55;20136;-74
2021/04/25 00:32:45;;;;;;;9.95;5.22;;;;;;;-0.82;100.00;100373.28;2578236;55;20142;-74
2021/04/25 00:35:16;;;;;;;7.10;5.03;;;;;;;-0.85;100.00;100369.88;2578243;55;20101;-74
2021/04/25 00:37:44;;;;;;;6.80;4.25;;;;;;;-0.86;100.00;100375.97;2578232;55;20097;-75
2021/04/25 00:40:19;;;;;;;8.82;5.82;;;;;;;-0.86;100.00;100388.25;2578272;55;20101;-74
2021/04/25 00:42:47;;;;;;;8.75;5.22;;;;;;;-0.94;100.00;100374.53;2578367;55;20113;-74
2021/04/25 00:45:17;;;;;;;13.77;7.50;;;;;;;-0.97;100.00;100378.09;2578227;55;20117;-74
2021/04/25 00:47:51;;;;;;;24.08;11.70;;;;;;;-1.00;100.00;100379.09;2578100;55;20135;-74
2021/04/25 00:50:24;;;;;;;32.95;15.77;;;;;;;-1.06;100.00;100375.78;2578076;55;20114;-73
2021/04/25 00:52:55;;;;;;;32.55;14.93;;;;;;;-1.09;100.00;100366.28;2578225;55;20134;-75
2021/04/25 00:55:25;;;;;;;25.17;12.32;;;;;;;-1.08;100.00;100370.59;2578134;55;20127;-74
2021/04/25 00:57:56;;;;;;;21.92;9.70;;;;;;;-1.10;100.00;100367.19;2578097;55;20143;-74
2021/04/25 01:00:24;;;;;;;18.12;8.52;;;;;;;-1.12;100.00;100361.12;2578057;55;20122;-74
2021/04/25 01:02:52;;;;;;;14.85;8.27;;;;;;;-1.15;100.00;100356.00;2578363;55;20653;-75
2021/04/25 01:05:22;;;;;;;18.10;8.38;;;;;;;-1.15;100.00;100362.09;2578086;55;20110;-74
2021/04/25 01:07:50;;;;;;;13.90;6.97;;;;;;;-1.19;100.00;100364.88;2577614;55;20155;-74
2021/04/25 01:10:18;;;;;;;12.68;6.82;;;;;;;-1.22;100.00;100371.03;2578037;55;20112;-74
2021/04/25 01:12:46;;;;;;;14.27;6.75;;;;;;;-1.26;100.00;100354.56;2578047;55;20120;-73
2021/04/25 01:15:16;;;;;;;10.40;5.85;;;;;;;-1.26;100.00;100357.19;2578076;55;20119;-74
2021/04/25 01:17:45;;;;;;;10.90;6.43;;;;;;;-1.29;100.00;100359.03;2578171;55;20120;-75
2021/04/25 01:20:14;;;;;;;14.73;8.45;;;;;;;-1.30;100.00;100354.72;2578044;55;20112;-74
2021/04/25 01:22:43;;;;;;;20.48;9.52;;;;;;;-1.29;100.00;100354.69;2578131;55;20530;-74
2021/04/25 01:25:13;;;;;;;24.80;12.05;;;;;;;-1.30;100.00;100355.59;2577964;55;20105;-75
2021/04/25 01:27:40;;;;;;;24.90;11.70;;;;;;;-1.28;100.00;100350.28;2577976;55;20097;-75
2021/04/25 01:30:11;;;;;;;19.02;9.23;;;;;;;-1.26;100.00;100357.19;2577964;55;20495;-74
2021/04/25 01:32:42;;;;;;;18.73;8.50;;;;;;;-1.29;100.00;100343.34;2578239;55;20156;-74
2021/04/25 01:35:15;;;;;;;15.32;8.80;;;;;;;-1.29;100.00;100349.44;2578149;55;20482;-73
2021/04/25 01:37:43;;;;;;;14.13;7.25;;;;;;;-1.29;100.00;100346.81;2578236;55;20118;-73
2021/04/25 01:40:12;;;;;;;16.10;7.95;;;;;;;-1.32;100.00;100344.28;2578023;55;20105;-72
2021/04/25 01:42:39;;;;;;;9.55;5.35;;;;;;;-1.33;100.00;100339.97;2578090;55;20484;-72
2021/04/25 01:45:15;;;;;;;8.52;5.55;;;;;;;-1.32;100.00;100340.84;2578043;55;20667;-72
2021/04/25 01:47:44;;;;;;;10.15;5.97;;;;;;;-1.32;100.00;100349.53;2578048;55;20604;-72
2021/04/25 01:50:13;;;;;;;9.23;5.45;;;;;;;-1.31;100.00;100346.00;2577946;55;20684;-72
2021/04/25 01:52:40;;;;;;;10.43;5.22;;;;;;;-1.32;100.00;100344.28;2577992;55;20162;-72
2021/04/25 01:55:11;;;;;;;10.00;5.70;;;;;;;-1.29;100.00;100346.81;2577937;55;20141;-73
2021/04/25 01:57:43;;;;;;;15.60;7.60;;;;;;;-1.31;100.00;100342.53;2578183;55;20132;-72
2021/04/25 02:00:15;;;;;;;15.80;7.85;;;;;;;-1.31;100.00;100335.53;2577868;55;20116;-72
2021/04/25 02:02:44;;;;;;;17.52;7.93;;;;;;;-1.36;100.00;100326.97;2577923;55;20127;-72
2021/04/25 02:05:13;;;;;;;15.40;8.25;;;;;;;-1.34;100.00;100330.41;2577852;55;20121;-72
2021/04/25 02:07:40;;;;;;;15.50;7.72;;;;;;;-1.34;100.00;100325.16;2577814;55;20669;-72
2021/04/25 02:10:10;;;;;;;9.70;5.72;;;;;;;-1.34;100.00;100326.94;2578011;55;20106;-72
2021/04/25 02:12:38;;;;;;;9.32;6.15;;;;;;;-1.37;100.00;100324.41;2577978;55;20148;-72
2021/04/25 02:15:07;;;;;;;7.18;5.12;;;;;;;-1.37;100.00;100330.50;2577883;55;20124;-72
2021/04/25 02:17:34;;;;;;;8.98;5.30;;;;;;;-1.39;100.00;100327.09;2577976;55;20719;-72
2021/04/25 02:20:05;;;;;;;10.07;5.60;;;;;;;-1.40;100.00;100326.22;2578565;55;20123;-72
2021/04/25 02:22:32;;;;;;;8.38;5.22;;;;;;;-1.37;100.00;100319.16;2578743;55;20160;-72
2021/04/25 02:25:00;;;;;;;7.87;4.95;;;;;;;-1.38;100.00;100320.94;2578634;55;20156;-72
2021/04/25 02:27:28;;;;;;;6.35;4.62;;;;;;;-1.41;100.00;100310.56;2578809;55;20124;-72
2021/04/25 02:29:55;;;;;;;5.78;4.03;;;;;;;-1.42;100.00;100321.94;2578897;55;20136;-72
2021/04/25 02:32:23;;;;;;;8.35;4.80;;;;;;;-1.43;100.00;100315.84;2578846;55;20117;-72
2021/04/25 02:34:50;;;;;;;7.15;4.37;;;;;;;-1.44;100.00;100314.16;2578857;55;20126;-72
2021/04/25 02:37:18;;;;;;;8.30;4.47;;;;;;;-1.46;100.00;100315.09;2578786;55;20135;-72
2021/04/25 02:39:45;;;;;;;9.18;4.45;;;;;;;-1.47;100.00;100319.44;2578683;55;20124;-72
2021/04/25 02:42:13;;;;;;;6.95;4.35;;;;;;;-1.45;100.00;100319.41;2578596;55;20549;-73
2021/04/25 02:44:41;;;;;;;9.75;4.93;;;;;;;-1.45;100.00;100315.06;2578752;55;20138;-72
2021/04/25 02:47:08;;;;;;;7.75;4.50;;;;;;;-1.44;100.00;100315.88;2578548;55;20635;-72
2021/04/25 02:49:36;;;;;;;6.32;4.50;;;;;;;-1.45;100.00;100306.31;2573707;55;20114;-72
2021/04/25 02:52:04;;;;;;;9.70;4.57;;;;;;;-1.44;100.00;100308.91;2578709;55;20165;-72
2021/04/25 02:54:32;;;;;;;6.43;4.65;;;;;;;-1.45;100.00;100304.59;2578531;55;20171;-72
2021/04/25 02:57:06;;;;;;;6.85;4.70;;;;;;;-1.43;100.00;100307.12;2578652;55;20159;-72
2021/04/25 02:59:34;;;;;;;8.18;4.82;;;;;;;-1.42;100.00;100307.09;2578678;55;20600;-72
2021/04/25 03:02:03;;;;;;;8.98;4.70;;;;;;;-1.41;100.00;100303.56;2578501;55;20128;-72
2021/04/25 03:04:30;;;;;;;11.57;5.20;;;;;;;-1.38;100.00;100301.75;2578508;55;20109;-72
2021/04/25 03:06:57;;;;;;;7.72;5.05;;;;;;;-1.35;100.00;100305.13;2578522;55;20110;-72
2021/04/25 03:09:25;;;;;;;8.48;5.00;;;;;;;-1.28;100.00;100298.78;2578637;55;20126;-72
2021/04/25 03:11:52;;;;;;;9.82;5.00;;;;;;;-1.24;100.00;100299.56;2573470;55;20121;-72
2021/04/25 03:14:20;;;;;;;8.38;4.80;;;;;;;-1.16;100.00;100307.16;2578498;55;20109;-72
2021/04/25 03:16:47;;;;;;;8.18;4.72;;;;;;;-1.11;100.00;100302.59;2578578;55;20124;-72
2021/04/25 03:19:15;;;;;;;9.13;5.35;;;;;;;-1.05;100.00;100294.56;2578583;55;20180;-72
2021/04/25 03:21:43;;;;;;;8.43;5.12;;;;;;;-0.96;100.00;100303.00;2578522;55;20121;-73
2021/04/25 03:24:10;;;;;;;7.28;4.75;;;;;;;-0.90;100.00;100292.31;2578476;55;20127;-72
2021/04/25 03:26:38;;;;;;;6.87;4.75;;;;;;;-0.83;100.00;100300.84;2578508;55;20114;-71
2021/04/25 03:29:07;;;;;;;7.82;4.93;;;;;;;-0.77;100.00;100305.84;2578565;55;20719;-72
2021/04/25 03:31:35;;;;;;;9.10;5.05;;;;;;;-0.73;100.00;100305.69;2578175;55;20131;-72
2021/04/25 03:34:02;;;;;;;8.73;5.25;;;;;;;-0.68;100.00;100299.44;2578489;55;20135;-71
2021/04/25 03:36:30;;;;;;;7.87;5.55;;;;;;;-0.61;100.00;100301.78;2573400;55;20125;-72
2021/04/25 03:38:58;;;;;;;8.25;5.30;;;;;;;-0.58;100.00;100304.28;2578398;55;20137;-72
2021/04/25 03:41:26;;;;;;;9.93;6.32;;;;;;;-0.48;100.00;100293.50;2578526;55;20101;-72
2021/04/25 03:43:54;;;;;;;9.57;5.20;;;;;;;-0.40;100.00;100294.06;2578379;55;20118;-73
2021/04/25 03:46:21;;;;;;;8.07;5.20;;;;;;;-0.31;100.00;100295.50;2578482;55;20500;-71
2021/04/25 03:48:48;;;;;;;7.85;5.68;;;;;;;-0.21;100.00;100307.34;2578332;55;20120;-72
2021/04/25 03:51:16;;;;;;;8.23;5.32;;;;;;;-0.09;100.00;100299.97;2578447;55;20113;-71
2021/04/25 03:53:54;;;;;;;7.57;5.68;;;;;;;0.02;100.00;100295.16;2578806;55;20124;-71
2021/04/25 03:56:21;;;;;;;8.45;5.65;;;;;;;0.16;100.00;100296.41;2578440;55;20622;-72
2021/04/25 03:58:49;;;;;;;10.82;6.25;;;;;;;0.35;100.00;100301.78;2578398;55;20109;-72
2021/04/25 04:01:16;;;;;;;7.20;5.20;;;;;;;0.46;100.00;100296.12;2578413;55;20139;-71
2021/04/25 04:03:44;;;;;;;8.13;5.82;;;;;;;0.64;100.00;100290.12;2578696;55;20117;-71
2021/04/25 04:06:12;;;;;;;7.53;4.47;;;;;;;0.75;100.00;100286.22;2578345;55;20133;-71
2021/04/25 04:08:39;;;;;;;6.70;4.97;;;;;;;0.93;100.00;100285.44;2578270;55;20512;-69
2021/04/25 04:11:08;;;;;;;8.18;5.65;;;;;;;1.02;100.00;100285.97;2578607;55;20504;-69
2021/04/25 04:13:35;;;;;;;6.72;4.65;;;;;;;1.11;100.00;100289.06;2578587;55;20101;-70
2021/04/25 04:16:03;;;;;;;6.55;4.68;;;;;;;1.18;100.00;100284.41;2578485;55;20151;-69
2021/04/25 04:18:31;;;;;;;7.12;5.00;;;;;;;1.22;100.00;100267.59;2578318;55;20121;-70
2021/04/25 04:20:58;;;;;;;6.25;3.83;;;;;;;1.30;100.00;100261.13;2578299;55;20116;-70
2021/04/25 04:23:25;;;;;;;8.68;4.60;;;;;;;1.36;100.00;100266.12;2578374;55;20109;-70
2021/04/25 04:25:53;;;;;;;9.18;4.60;;;;;;;1.41;100.00;100269.41;2578277;55;20139;-70
2021/04/25 04:28:21;;;;;;;5.97;4.20;;;;;;;1.51;100.00;100265.47;2578322;55;20110;-70
2021/04/25 04:30:49;;;;;;;6.57;3.42;;;;;;;1.61;100.00;100257.16;2578299;55;20105;-70
2021/04/25 04:33:16;;;;;;;6.65;3.80;;;;;;;1.71;100.00;100250.56;2578319;55;20520;-70
2021/04/25 04:35:43;;;;;;;6.30;3.87;;;;;;;1.75;100.00;100243.34;2578317;55;20117;-70
2021/04/25 04:38:11;;;;;;;5.90;3.20;;;;;;;1.93;100.00;100247.75;2578249;55;20603;-70
2021/04/25 04:40:38;;;;;;;5.22;3.33;;;;;;;2.04;100.00;100239.38;2578475;55;20622;-70
2021/04/25 04:43:06;;;;;;;5.72;3.42;;;;;;;2.15;100.00;100240.66;2578288;55;20539;-70
2021/04/25 04:45:34;;;;;;;4.90;3.47;;;;;;;2.25;100.00;100239.28;2578166;55;20114;-70
2021/04/25 04:48:02;;;;;;;4.57;3.28;;;;;;;2.32;100.00;100247.72;2578165;55;20516;-70
2021/04/25 04:50:29;;;;;;;3.90;3.10;;;;;;;2.38;100.00;100244.81;2578210;55;20133;-70
2021/04/25 04:52:57;;;;;;;4.03;3.20;;;;;;;2.38;100.00;100239.56;2578279;55;20124;-70
2021/04/25 04:55:25;;;;;;;6.72;3.35;;;;;;;2.46;100.00;100236.53;2578607;55;20093;-70
2021/04/25 04:57:52;;;;;;;4.47;3.10;;;;;;;2.54;100.00;100239.66;2578193;55;20110;-70
2021/04/25 05:00:20;;;;;;;4.35;3.20;;;;;;;2.60;100.00;100238.50;2578216;55;20117;-70
2021/04/25 05:02:48;;;;;;;4.72;3.60;;;;;;;2.67;100.00;100239.03;2578214;55;20592;-70
2021/04/25 05:05:16;;;;;;;9.38;3.22;;;;;;;2.69;100.00;100229.25;2578283;55;20501;-70
2021/04/25 05:07:43;;;;;;;5.18;3.53;;;;;;;2.72;100.00;100226.50;2573023;55;20109;-70
2021/04/25 05:10:11;;;;;;;6.57;3.62;;;;;;;2.79;100.00;100233.16;2578141;55;20113;-70
2021/04/25 05:12:39;;;;;;;7.30;3.90;;;;;;;2.78;100.00;100232.31;2578225;55;20131;-71
2021/04/25 05:15:07;;;;;;;5.47;3.90;;;;;;;2.84;100.00;100232.91;2578208;55;20173;-71
2021/04/25 05:17:35;;;;;;;4.43;3.08;;;;;;;2.86;100.00;100223.16;2578066;55;20160;-70
2021/04/25 05:20:04;;;;;;;7.93;3.97;;;;;;;2.89;100.00;100228.28;2578190;55;20114;-70
2021/04/25 05:22:32;;;;;;;7.43;4.62;;;;;;;2.94;100.00;100233.31;2578096;55;20671;-70
2021/04/25 05:24:59;;;;;;;6.07;4.30;;;;;;;2.95;100.00;100225.31;2578067;55;20109;-71
2021/04/25 05:27:27;;;;;;;4.62;3.25;;;;;;;2.98;99.89;100232.22;2578155;55;20607;-71
2021/04/25 05:29:54;;;;;;;5.47;3.22;;;;;;;3.04;99.52;100221.38;2578166;55;20125;-72
2021/04/25 05:32:22;;;;;;;4.20;3.00;;;;;;;3.09;99.08;100224.59;2578194;55;20132;-71
2021/04/25 05:34:50;;;;;;;3.83;3.37;;;;;;;3.15;99.88;100226.94;2577981;55;20165;-71
2021/04/25 05:37:20;;;;;;;8.18;3.67;;;;;;;3.22;99.84;100226.63;2578291;55;20131;-73
2021/04/25 05:39:48;;;;;;;5.78;3.50;;;;;;;3.30;100.00;100227.03;2578142;55;20729;-70
2021/04/25 05:42:15;;;;;;;5.40;3.12;;;;;;;3.33;98.45;100224.28;2578326;55;20117;-71
2021/04/25 05:44:42;;;;;;;3.65;2.75;;;;;;;3.33;98.49;100232.19;2577938;55;20169;-71
2021/04/25 05:47:10;;;;;;;3.90;3.25;;;;;;;3.37;99.53;100238.97;2577947;55;20109;-71
2021/04/25 05:49:37;;;;;;;5.12;3.45;;;;;;;3.38;98.93;100224.88;2578035;55;20145;-71
2021/04/25 05:52:05;;;;;;;5.12;2.85;;;;;;;3.36;97.35;100231.16;2577919;55;20176;-71
2021/04/25 05:54:34;;;;;;;5.87;3.08;;;;;;;3.38;98.29;100232.78;2578538;55;20512;-71
2021/04/25 05:57:01;;;;;;;4.47;3.00;;;;;;;3.34;98.05;100224.16;2578826;55;20109;-70
2021/04/25 05:59:28;;;;;;;3.15;2.17;;;;;;;3.28;96.85;100231.56;2578862;55;20157;-71
2021/04/25 06:01:56;;;;;;;3.55;2.65;;;;;;;3.26;98.29;100230.78;2578876;55;20164;-70
2021/04/25 06:04:24;;;;;;;4.72;2.80;;;;;;;3.24;99.82;100225.59;2578921;55;20630;-71
2021/04/25 06:06:51;;;;;;;5.53;3.33;;;;;;;3.29;100.00;100215.66;2578717;55;20524;-71
2021/04/25 06:09:19;;;;;;;3.37;2.58;;;;;;;3.38;100.00;100227.50;2578752;55;20603;-69
2021/04/25 06:11:58;;;;;;;5.68;3.58;;;;;;;3.41;100.00;100224.72;2589780;47;20198;-70
2021/04/25 06:14:26;;;;;;;7.37;4.25;;;;;;;3.50;100.00;100233.91;2587645;55;20618;-68
2021/04/25 06:16:53;;;;;;;3.15;2.55;;;;;;;3.53;98.79;100227.63;2587638;55;20109;-68
2021/04/25 06:19:20;;;;;;;3.95;2.80;;;;;;;3.50;99.96;100222.50;2587688;55;20121;-69
2021/04/25 06:21:48;;;;;;;4.32;2.85;;;;;;;3.52;100.00;100220.66;2587627;55;20119;-69
2021/04/25 06:24:15;;;;;;;5.07;3.08;;;;;;;3.58;100.00;100220.31;2587702;55;20119;-69
2021/04/25 06:26:43;;;;;;;4.05;3.00;;;;;;;3.67;100.00;100221.62;2587592;55;20603;-69
2021/04/25 06:29:11;;;;;;;3.95;2.72;;;;;;;3.65;99.22;100224.31;2587564;55;20105;-69
2021/04/25 06:31:45;;;;;;;5.50;3.72;;;;;;;3.52;99.50;100215.38;2587563;55;20163;-69
2021/04/25 06:34:13;;;;;;;2.83;2.45;;;;;;;3.45;99.44;100218.34;2587541;55;20126;-69
2021/04/25 06:36:43;;;;;;;4.25;2.58;;;;;;;3.40;100.00;100204.53;2587654;55;20118;-68
2021/04/25 06:39:11;;;;;;;3.47;2.53;;;;;;;3.40;100.00;100212.44;2587483;55;20123;-68
2021/04/25 06:41:38;;;;;;;3.58;2.40;;;;;;;3.41;100.00;100214.16;2587585;55;20135;-69
2021/04/25 06:44:07;;;;;;;4.35;2.42;;;;;;;3.46;99.64;100211.28;2582443;55;20116;-69
2021/04/25 06:46:35;;;;;;;2.42;2.08;;;;;;;3.46;99.19;100206.00;2587480;55;20108;-69
2021/04/25 06:49:03;;;;;;;3.22;2.92;;;;;;;3.54;100.00;100203.78;2587499;55;20648;-69
2021/04/25 06:51:31;;;;;;;6.12;2.90;;;;;;;3.60;100.00;100203.47;2587379;55;20127;-69
2021/04/25 06:53:59;;;;;;;4.47;3.00;;;;;;;3.70;100.00;100205.59;2587599;55;20117;-70
2021/04/25 06:56:26;;;;;;;4.32;3.47;;;;;;;3.76;100.00;100207.94;2587473;55;20123;-69
2021/04/25 06:58:55;;;;;;;3.78;2.87;;;;;;;3.83;99.96;100213.72;2587534;55;20640;-69
2021/04/25 07:01:22;;;;;;;4.78;3.35;;;;;;;3.94;100.00;100206.03;2587443;55;20138;-69
2021/04/25 07:03:53;;;;;;;6.40;3.47;;;;;;;4.09;100.00;100201.69;2587474;55;20111;-70
2021/04/25 07:06:21;;;;;;;4.43;3.45;;;;;;;4.16;100.00;100199.56;2581821;55;20330;-70
2021/04/25 07:08:48;;;;;;;4.78;3.60;;;;;;;4.28;100.00;100198.84;2587235;55;20127;-70
2021/04/25 07:11:16;;;;;;;5.40;3.78;;;;;;;4.35;99.84;100199.34;2587292;55;20117;-69
2021/04/25 07:13:44;;;;;;;6.70;3.90;;;;;;;4.40;100.00;100207.00;2587218;55;20545;-70
2021/04/25 07:16:11;;;;;;;5.32;4.20;;;;;;;4.44;99.66;100187.41;2587327;55;20137;-70
2021/04/25 07:18:39;;;;;;;8.07;3.95;;;;;;;4.49;100.00;100195.91;2578105;55;20131;-70
2021/04/25 07:21:07;;;;;;;5.68;3.95;;;;;;;4.46;99.47;100190.81;2587198;55;20115;-69
2021/04/25 07:23:34;;;;;;;6.32;4.62;;;;;;;4.48;100.00;100201.31;2583804;55;20105;-71
2021/04/25 07:26:02;;;;;;;6.60;4.15;;;;;;;4.52;100.00;100194.88;2583702;55;20196;-70
2021/04/25 07:28:30;;;;;;;5.68;4.47;;;;;;;4.52;99.85;100200.19;2581676;55;20127;-71
2021/04/25 07:30:57;;;;;;;6.60;5.07;;;;;;;4.55;99.27;100205.28;2581119;55;20139;-70
2021/04/25 07:33:24;;;;;;;5.55;4.35;;;;;;;4.60;100.00;100203.22;2575346;55;20125;-69
2021/04/25 07:35:52;;;;;;;5.80;4.68;;;;;;;4.73;99.59;100203.37;2580180;55;20125;-70
2021/04/25 07:38:27;;;;;;;6.03;4.12;;;;;;;4.84;98.21;100198.28;2580642;55;20127;-69
2021/04/25 07:40:55;;;;;;;6.95;3.60;;;;;;;4.80;96.73;100199.41;2580675;55;20147;-69
2021/04/25 07:43:22;;;;;;;5.97;4.60;;;;;;;4.88;98.12;100199.78;2579583;55;20141;-72
2021/04/25 07:45:50;;;;;;;6.65;4.47;;;;;;;4.85;96.34;100189.41;2580545;55;20112;-70
2021/04/25 07:48:17;;;;;;;7.45;5.50;;;;;;;4.85;95.74;100192.06;2580577;55;20761;-69
2021/04/25 07:50:45;;;;;;;6.07;4.18;;;;;;;4.88;95.29;100193.69;2580360;55;20129;-70
2021/04/25 07:53:12;;;;;;;11.73;5.00;;;;;;;4.98;96.34;100184.25;2580873;55;20208;-70
2021/04/25 07:55:43;;;;;;;5.93;3.55;;;;;;;5.01;94.30;100193.75;2580283;55;20131;-70
2021/04/25 07:58:10;;;;;;;5.15;3.75;;;;;;;5.03;93.86;100189.25;2580953;55;20117;-70
2021/04/25 08:00:38;;;;;;;7.78;5.05;;;;;;;5.04;93.99;100183.03;2575207;55;20140;-70
2021/04/25 08:03:14;;;;;;;8.60;4.68;;;;;;;5.09;94.87;100191.50;2581575;55;20137;-70
2021/04/25 08:05:41;;;;;;;6.28;3.80;;;;;;;5.13;93.38;100182.47;2581294;55;20138;-70
2021/04/25 08:08:09;;;;;;;5.97;3.40;;;;;;;5.10;93.14;100195.84;2581014;55;20121;-69
2021/04/25 08:10:36;;;;;;;5.65;3.35;;;;;;;4.97;93.26;100179.03;2581240;55;20235;-70
2021/04/25 08:13:04;;;;;;;4.10;3.00;;;;;;;5.00;94.48;100190.28;2581237;55;20139;-70
2021/04/25 08:15:32;;;;;;;5.65;3.90;;;;;;;4.99;94.76;100177.16;2581253;55;20113;-70
2021/04/25 08:18:01;;;;;;;5.50;4.25;;;;;;;5.05;95.08;100197.94;2581276;55;20650;-69
2021/04/25 08:20:28;;;;;;;5.70;3.35;;;;;;;4.97;92.88;100189.63;2581559;55;20121;-70
2021/04/25 08:22:56;;;;;;;4.30;3.62;;;;;;;4.88;93.69;100191.88;2581603;55;20135;-70
2021/04/25 08:25:23;;;;;;;5.35;3.47;;;;;;;4.93;94.80;100181.00;2580549;55;20127;-70
2021/04/25 08:27:51;;;;;;;4.90;3.47;;;;;;;5.01;94.74;100185.81;2581063;55;20143;-71
2021/04/25 08:30:23;;;;;;;4.93;3.40;;;;;;;5.00;93.45;100185.00;2580900;55;20132;-71
2021/04/25 08:33:16;;;;;;;5.70;4.12;;;;;;;4.95;94.03;100186.22;2591472;47;20531;-72
2021/04/25 08:35:44;;;;;;;3.50;3.17;;;;;;;4.90;94.64;100188.28;2584126;55;20125;-73
2021/04/25 08:38:11;;;;;;;4.55;3.78;;;;;;;4.84;94.60;100182.44;2580226;55;20532;-73
2021/04/25 08:40:38;;;;;;;5.97;4.15;;;;;;;4.90;96.13;100198.84;2580189;55;20113;-73
2021/04/25 08:43:11;;;;;;;5.15;3.80;;;;;;;4.87;95.76;100187.53;2580111;55;20141;-72
2021/04/25 08:45:40;;;;;;;6.55;2.80;;;;;;;4.83;95.82;100188.66;2580061;55;20129;-73
2021/04/25 08:48:11;;;;;;;5.90;3.55;;;;;;;4.81;97.98;100185.25;2579992;55;20113;-74
2021/04/25 08:50:40;;;;;;;3.92;3.30;;;;;;;4.95;97.11;100194.97;2580340;55;20133;-74
2021/04/25 08:53:10;;;;;;;4.25;3.37;;;;;;;4.95;96.91;100183.56;2580006;55;20642;-74
2021/04/25 08:55:38;;;;;;;4.65;3.20;;;;;;;4.99;96.30;100188.59;2579804;55;20125;-71
2021/04/25 08:58:05;;;;;;;7.32;3.90;;;;;;;5.03;97.71;100191.91;2578708;55;20555;-71
2021/04/25 09:00:33;;;;;;;7.07;3.70;;;;;;;5.03;97.70;100186.63;2578245;55;20511;-71
2021/04/25 09:03:00;;;;;;;5.90;3.50;;;;;;;4.99;96.82;100185.94;2573667;55;20135;-71
2021/04/25 09:05:28;;;;;;;5.15;4.37;;;;;;;5.02;98.74;100182.28;2578815;55;20125;-71
2021/04/25 09:07:58;;;;;;;4.90;3.35;;;;;;;5.12;99.18;100196.63;2578816;55;20124;-71
2021/04/25 09:10:30;;;;;;;5.05;4.00;;;;;;;5.19;98.57;100185.66;2578874;55;20109;-71
2021/04/25 09:12:58;;;;;;;4.50;3.58;;;;;;;5.24;98.23;100192.38;2579650;55;20665;-71
2021/04/25 09:15:28;;;;;;;4.32;3.90;;;;;;;5.35;97.00;100189.06;2579877;55;20113;-71
2021/04/25 09:17:57;;;;;;;4.03;3.30;;;;;;;5.40;96.25;100186.97;2579808;55;20132;-71
2021/04/25 09:20:35;;;;;;;5.57;3.78;;;;;;;5.50;97.43;100191.69;2580064;55;20609;-71
2021/04/25 09:23:05;;;;;;;6.32;4.47;;;;;;;5.57;97.59;100185.97;2580025;55;20635;-71
2021/04/25 09:25:33;;;;;;;4.75;3.78;;;;;;;5.66;97.30;100187.16;2579799;55;20154;-72
2021/04/25 09:28:18;;;;;;;5.37;3.67;;;;;;;5.75;94.29;100190.19;2579774;55;20112;-71
2021/04/25 09:30:57;;;;;;;5.07;3.33;;;;;;;5.64;94.16;100189.06;2579591;55;20566;-71
2021/04/25 09:33:26;;;;;;;4.68;3.65;;;;;;;5.53;93.88;100186.25;2579500;55;20147;-71
2021/04/25 09:35:57;;;;;;;4.30;3.47;;;;;;;5.36;93.98;100171.41;2579853;55;20120;-71
2021/04/25 09:38:33;;;;;;;4.20;3.40;;;;;;;5.50;93.77;100189.91;2579701;55;20135;-71
2021/04/25 09:41:01;;;;;;;5.35;3.40;;;;;;;5.47;93.87;100190.13;2580423;55;20129;-71
2021/04/25 09:43:38;;;;;;;4.47;3.33;;;;;;;5.51;94.27;100190.75;2578603;55;20148;-71
2021/04/25 09:46:07;;;;;;;4.15;2.83;;;;;;;5.36;93.85;100201.34;2576455;55;20144;-71
2021/04/25 09:48:35;;;;;;;5.80;3.60;;;;;;;5.24;94.40;100196.81;2576797;55;20118;-72
2021/04/25 09:51:07;;;;;;;6.35;3.80;;;;;;;5.13;94.35;100203.63;2576458;55;20135;-68
2021/04/25 09:53:37;;;;;;;4.00;2.78;;;;;;;5.10;94.61;100201.12;2576266;55;20112;-68
2021/04/25 09:56:06;;;;;;;2.95;2.53;;;;;;;4.82;94.97;100191.38;2576147;55;20619;-69
2021/04/25 09:58:34;;;;;;;3.72;2.80;;;;;;;4.71;96.63;100205.22;2576340;55;20121;-72
2021/04/25 10:01:02;;;;;;;5.05;3.37;;;;;;;4.56;97.87;100196.41;2576150;55;20105;-69
2021/04/25 10:03:37;;;;;;;4.28;3.10;;;;;;;4.57;98.63;100209.53;2575975;55;20129;-66
2021/04/25 10:06:06;;;;;;;3.72;3.00;;;;;;;4.52;99.47;100216.91;2575962;55;20116;-65
2021/04/25 10:08:37;;;;;;;7.20;5.32;;;;;;;4.53;100.00;100210.66;2575826;55;20106;-66
2021/04/25 10:11:07;;;;;;;5.93;4.12;;;;;;;4.50;100.00;100208.19;2576282;55;20105;-70
2021/04/25 10:13:36;;;;;;;5.50;3.00;;;;;;;4.45;100.00;100210.25;2576284;55;20531;-70
2021/04/25 10:16:05;;;;;;;5.53;3.35;;;;;;;4.46;100.00;100211.94;2576073;55;20156;-70
2021/04/25 10:18:32;;;;;;;4.30;3.20;;;;;;;4.41;100.00;100224.56;2575939;55;20117;-69
2021/04/25 10:21:00;;;;;;;4.85;2.67;;;;;;;4.43;100.00;100217.41;2576244;55;20129;-70
2021/04/25 10:23:27;;;;;;;4.15;2.62;;;;;;;4.43;100.00;100220.06;2576295;55;20131;-70
2021/04/25 10:25:56;;;;;;;2.70;2.37;;;;;;;4.34;100.00;100218.78;2576237;55;20128;-69
2021/04/25 10:28:28;;;;;;;2.55;2.25;;;;;;;4.30;100.00;100220.75;2576112;55;20646;-70
2021/04/25 10:31:01;;;;;;;4.20;2.70;;;;;;;4.32;100.00;100229.44;2575885;55;20571;-70
2021/04/25 10:33:58;;;;;;;4.25;2.78;;;;;;;4.46;100.00;100217.22;2576092;55;20143;-70
2021/04/25 10:37:02;;;;;;;3.80;3.08;;;;;;;4.62;100.00;100227.75;2575815;55;20809;-69
2021/04/25 10:39:37;;;;;;;4.60;3.30;;;;;;;4.60;100.00;100225.19;2576253;55;20136;-69
2021/04/25 10:42:31;;;;;;;4.30;2.83;;;;;;;4.72;100.00;100233.37;2575738;55;20678;-68
2021/04/25 10:45:24;;;;;;;3.60;2.70;;;;;;;4.75;100.00;100233.19;2566642;55;20143;-72
2021/04/25 10:48:23;;;;;;;5.28;2.80;;;;;;;4.74;100.00;100226.22;2564978;55;20136;-72
2021/04/25 10:50:53;;;;;;;8.02;4.57;;;;;;;4.66;100.00;100239.00;2571262;55;20842;-72
2021/04/25 10:53:29;;;;;;;6.03;4.03;;;;;;;4.53;100.00;100241.50;2570865;55;20118;-71
2021/04/25 10:56:33;;;;;;;8.02;6.78;;;;;;;4.64;100.00;100239.09;2570325;55;20121;-72
2021/04/25 10:59:32;;;;;;;4.53;3.90;;;;;;;4.66;100.00;100234.59;2570922;55;20537;-71
2021/04/25 11:02:02;;;;;;;4.60;3.90;;;;;;;4.56;100.00;100244.81;2570856;55;20136;-72
2021/04/25 11:05:11;;;;;;;7.35;4.70;;;;;;;4.66;100.00;100241.66;2570696;55;20129;-71
2021/04/25 11:07:48;;;;;;;5.20;3.15;;;;;;;4.78;100.00;100246.22;2565601;55;20125;-74
2021/04/25 11:10:22;;;;;;;3.83;2.90;;;;;;;4.73;100.00;100243.84;2570898;55;20581;-72
2021/04/25 11:12:50;;;;;;;4.57;2.90;;;;;;;4.76;100.00;100242.81;2570816;55;20175;-72
2021/04/25 11:15:51;;;;;;;3.90;2.80;;;;;;;4.81;100.00;100243.41;2565740;55;20136;-72
2021/04/25 11:18:46;;;;;;;3.72;2.45;;;;;;;4.82;100.00;100244.25;2570616;55;20121;-71
2021/04/25 11:21:54;;;;;;;3.42;2.05;;;;;;;4.85;100.00;100249.34;2570942;55;20123;-73
2021/04/25 11:24:28;;;;;;;2.72;1.85;;;;;;;4.69;100.00;100255.53;2571110;55;20128;-72
2021/04/25 11:26:57;;;;;;;2.75;1.87;;;;;;;4.58;100.00;100253.50;2570701;55;20121;-72
2021/04/25 11:29:59;;;;;;;2.00;1.40;;;;;;;4.70;100.00;100259.03;2570471;55;20128;-72
2021/04/25 11:32:32;;;;;;;2.50;1.52;;;;;;;4.56;100.00;100259.81;2570587;55;20155;-71
2021/04/25 11:35:10;;;;;;;2.28;1.60;;;;;;;4.45;100.00;100263.09;2570669;55;20121;-70
2021/04/25 11:37:39;;;;;;;2.53;1.50;;;;;;;4.43;100.00;100262.31;2570732;55;20124;-70